createdAt,value
2022-11-05T00:00:10.159Z,100760.91
2022-11-05T00:02:31.191Z,100752.88
2022-11-05T00:04:53.847Z,100749.19
2022-11-05T00:07:19.251Z,100739.41
2022-11-05T00:09:32.681Z,100739.41
2022-11-05T00:11:54.299Z,100727.94
2022-11-05T00:14:15.339Z,100733.16
2022-11-05T00:16:36.496Z,100731.47
2022-11-05T00:18:40.136Z,100722.50
2022-11-05T00:20:45.757Z,100733.81
2022-11-05T00:23:06.415Z,100730.13
2022-11-05T00:25:15.169Z,100721.06
2022-11-05T00:27:18.770Z,100720.84
2022-11-05T00:29:22.325Z,100705.75
2022-11-05T00:31:25.940Z,100697.41
2022-11-05T00:33:29.892Z,100691.97
2022-11-05T00:35:33.395Z,100701.50
2022-11-05T00:37:38.553Z,100691.75
2022-11-05T00:39:42.259Z,100704.03
2022-11-05T00:42:05.981Z,100697.06
2022-11-05T00:44:41.657Z,100697.06
2022-11-05T00:46:45.374Z,100687.50
2022-11-05T00:49:06.152Z,100679.75
2022-11-05T00:51:10.530Z,100673.72
2022-11-05T00:53:15.488Z,100670.44
2022-11-05T00:55:19.447Z,100664.38
2022-11-05T00:57:23.047Z,100671.56
2022-11-05T00:59:26.492Z,100669.03
2022-11-05T01:01:31.473Z,100665.50
2022-11-05T01:03:37.276Z,100662.84
2022-11-05T01:05:42.335Z,100667.31
2022-11-05T01:07:45.873Z,100662.03
2022-11-05T01:09:51.185Z,100650.56
2022-11-05T01:11:55.905Z,100655.84
2022-11-05T01:13:59.590Z,100651.53
2022-11-05T01:16:07.678Z,100651.53
2022-11-05T01:18:11.669Z,100652.28
2022-11-05T01:20:16.697Z,100646.97
2022-11-05T01:22:21.057Z,100644.34
2022-11-05T01:24:25.133Z,100646.97
2022-11-05T01:26:30.378Z,100648.69
2022-11-05T01:28:33.990Z,100647.84
2022-11-05T01:30:37.959Z,100654.81
2022-11-05T01:32:41.734Z,100645.09
2022-11-05T01:34:45.284Z,100637.16
2022-11-05T01:36:50.748Z,100639.72
2022-11-05T01:38:54.262Z,100637.91
2022-11-05T01:40:57.859Z,100632.63
2022-11-05T01:43:02.987Z,100627.31
2022-11-05T01:45:14.414Z,100626.50
2022-11-05T01:47:27.300Z,100615.91
2022-11-05T01:49:34.966Z,100603.50
2022-11-05T01:51:38.808Z,100608.81
2022-11-05T01:53:47.848Z,100600.88
2022-11-05T01:55:56.881Z,100599.94
2022-11-05T01:58:02.261Z,100596.34
2022-11-05T02:00:08.430Z,100599.00
2022-11-05T02:02:17.160Z,100595.38
2022-11-05T02:04:29.414Z,100590.94
2022-11-05T02:06:36.176Z,100587.38
2022-11-05T02:08:54.170Z,100595.19
2022-11-05T02:10:58.461Z,100587.25
2022-11-05T02:13:03.806Z,100581.00
2022-11-05T02:15:12.732Z,100582.69
2022-11-05T02:17:25.430Z,100586.22
2022-11-05T02:20:04.403Z,100585.13
2022-11-05T02:22:38.445Z,100589.59
2022-11-05T02:25:03.560Z,100577.19
2022-11-05T02:27:18.989Z,100574.66
2022-11-05T02:29:48.685Z,100573.00
2022-11-05T02:32:05.479Z,100560.69
2022-11-05T02:34:19.324Z,100559.81
2022-11-05T02:36:33.506Z,100559.00
2022-11-05T02:38:44.495Z,100556.44
2022-11-05T02:40:56.534Z,100557.28
2022-11-05T02:43:06.641Z,100551.16
2022-11-05T02:45:18.358Z,100545.97
2022-11-05T02:47:39.683Z,100538.88
2022-11-05T02:49:52.696Z,100537.16
2022-11-05T02:52:00.287Z,100529.22
2022-11-05T02:54:11.312Z,100517.81
2022-11-05T02:56:22.457Z,100506.38
2022-11-05T02:58:26.005Z,100495.97
2022-11-05T03:00:42.627Z,100489.84
2022-11-05T03:02:47.873Z,100489.03
2022-11-05T03:04:51.528Z,100478.34
2022-11-05T03:07:17.203Z,100474.81
2022-11-05T03:09:40.221Z,100469.53
2022-11-05T03:11:56.396Z,100468.59
2022-11-05T03:14:04.317Z,100465.94
2022-11-05T03:16:18.187Z,100464.06
2022-11-05T03:18:31.668Z,100459.72
2022-11-05T03:20:41.311Z,100452.59
2022-11-05T03:22:50.838Z,100441.91
2022-11-05T03:24:59.548Z,100436.56
2022-11-05T03:27:07.650Z,100425.00
2022-11-05T03:29:15.463Z,100415.06
2022-11-05T03:31:20.529Z,100408.72
2022-11-05T03:33:29.325Z,100402.38
2022-11-05T03:35:38.071Z,100397.81
2022-11-05T03:37:44.484Z,100392.63
2022-11-05T03:39:55.639Z,100394.34
2022-11-05T03:42:00.347Z,100379.28
2022-11-05T03:44:07.187Z,100378.56
2022-11-05T03:46:13.880Z,100367.53
2022-11-05T03:48:20.826Z,100354.09
2022-11-05T03:50:34.773Z,100334.41
2022-11-05T03:52:47.535Z,100326.25
2022-11-05T03:54:51.112Z,100341.56
2022-11-05T03:57:03.899Z,100332.03
2022-11-05T03:59:10.859Z,100313.63
2022-11-05T04:01:15.400Z,100322.53
2022-11-05T04:03:19.908Z,100333.00
2022-11-05T04:05:23.721Z,100339.13
2022-11-05T04:07:45.814Z,100331.84
2022-11-05T04:10:06.873Z,100333.44
2022-11-05T04:12:26.071Z,100317.25
2022-11-05T04:14:30.301Z,100313.88
2022-11-05T04:16:50.970Z,100287.84
2022-11-05T04:18:54.792Z,100279.47
2022-11-05T04:21:15.932Z,100270.25
2022-11-05T04:23:43.531Z,100269.97
2022-11-05T04:25:47.005Z,100274.91
2022-11-05T04:27:50.879Z,100271.22
2022-11-05T04:30:11.689Z,100263.16
2022-11-05T04:32:15.583Z,100259.69
2022-11-05T04:34:22.119Z,100223.47
2022-11-05T04:36:26.331Z,100233.94
2022-11-05T04:38:31.317Z,100211.59
2022-11-05T04:40:35.058Z,100217.31
2022-11-05T04:42:38.270Z,100212.53
2022-11-05T04:44:41.571Z,100206.88
2022-11-05T04:46:45.053Z,100195.63
2022-11-05T04:48:48.379Z,100195.63
2022-11-05T04:50:51.647Z,100187.69
2022-11-05T04:52:54.877Z,100196.69
2022-11-05T04:54:59.539Z,100186.13
2022-11-05T04:57:02.773Z,100168.56
2022-11-05T04:59:06.051Z,100193.34
2022-11-05T05:01:14.307Z,100175.75
2022-11-05T05:03:17.754Z,100173.34
2022-11-05T05:05:22.113Z,100151.41
2022-11-05T05:07:25.934Z,100158.53
2022-11-05T05:09:29.296Z,100152.47
2022-11-05T05:11:33.941Z,100152.59
2022-11-05T05:13:37.128Z,100143.59
2022-11-05T05:15:40.463Z,100142.53
2022-11-05T05:17:43.624Z,100137.84
2022-11-05T05:20:04.673Z,100130.88
2022-11-05T05:22:07.844Z,100128.94
2022-11-05T05:24:13.224Z,100141.97
2022-11-05T05:26:16.660Z,100120.78
2022-11-05T05:28:21.319Z,100127.03
2022-11-05T05:30:25.952Z,100117.50
2022-11-05T05:32:29.195Z,100104.28
2022-11-05T05:34:32.473Z,100096.31
2022-11-05T05:36:35.667Z,100096.31
2022-11-05T05:38:39.059Z,100092.72
2022-11-05T05:40:42.325Z,100090.91
2022-11-05T05:42:45.563Z,100085.78
2022-11-05T05:44:50.201Z,100086.03
2022-11-05T05:46:55.143Z,100080.06
2022-11-05T05:48:58.377Z,100076.00
2022-11-05T05:51:02.946Z,100076.47
2022-11-05T05:53:06.199Z,100067.25
2022-11-05T05:55:12.657Z,100079.66
2022-11-05T05:57:15.907Z,100065.00
2022-11-05T05:59:19.131Z,100066.19
2022-11-05T06:01:24.082Z,100057.75
2022-11-05T06:03:27.385Z,100048.59
2022-11-05T06:05:30.668Z,100044.03
2022-11-05T06:07:37.277Z,100047.41
2022-11-05T06:09:40.805Z,100059.69
2022-11-05T06:11:44.007Z,100062.97
2022-11-05T06:13:47.497Z,100055.38
2022-11-05T06:15:50.767Z,100053.28
2022-11-05T06:17:55.398Z,100047.91
2022-11-05T06:19:58.617Z,100049.34
2022-11-05T06:22:01.948Z,100036.78
2022-11-05T06:24:05.414Z,100016.41
2022-11-05T06:26:10.343Z,100025.69
2022-11-05T06:28:13.645Z,100013.97
2022-11-05T06:30:17.756Z,100013.75
2022-11-05T06:32:21.080Z,100003.00
2022-11-05T06:34:25.746Z,100011.94
2022-11-05T06:36:28.916Z,100006.63
2022-11-05T06:38:34.346Z,100014.44
2022-11-05T06:40:37.560Z,99999.50
2022-11-05T06:42:40.793Z,99996.00
2022-11-05T06:44:43.959Z,100005.66
2022-11-05T06:46:48.882Z,100005.66
2022-11-05T06:48:52.189Z,99990.59
2022-11-05T06:50:58.425Z,99978.28
2022-11-05T06:53:05.216Z,99989.75
2022-11-05T06:55:09.209Z,99993.09
2022-11-05T06:57:13.476Z,99994.78
2022-11-05T06:59:16.843Z,99977.78
2022-11-05T07:01:20.379Z,99970.66
2022-11-05T07:03:23.693Z,99963.56
2022-11-05T07:05:27.382Z,99951.13
2022-11-05T07:07:31.962Z,99950.03
2022-11-05T07:09:38.568Z,99945.47
2022-11-05T07:11:41.804Z,99942.69
2022-11-05T07:13:46.391Z,99926.78
2022-11-05T07:15:49.663Z,99945.34
2022-11-05T07:17:58.693Z,99934.59
2022-11-05T07:20:02.044Z,99948.69
2022-11-05T07:22:05.527Z,99930.97
2022-11-05T07:24:10.514Z,99955.56
2022-11-05T07:26:13.801Z,99951.09
2022-11-05T07:28:17.105Z,99961.59
2022-11-05T07:30:20.637Z,99955.16
2022-11-05T07:32:24.387Z,99950.59
2022-11-05T07:34:27.532Z,99946.97
2022-11-05T07:36:30.923Z,99951.28
2022-11-05T07:38:34.383Z,99950.19
2022-11-05T07:40:39.463Z,99950.19
2022-11-05T07:42:44.648Z,99953.59
2022-11-05T07:44:48.074Z,99942.84
2022-11-05T07:46:52.049Z,99946.19
2022-11-05T07:48:55.435Z,99945.09
2022-11-05T07:50:59.005Z,99934.47
2022-11-05T07:53:02.786Z,99921.06
2022-11-05T07:55:07.182Z,99921.81
2022-11-05T07:57:11.936Z,99929.50
2022-11-05T07:59:15.287Z,99928.53
2022-11-05T08:01:18.701Z,99925.88
2022-11-05T08:03:22.291Z,99937.34
2022-11-05T08:05:25.983Z,99953.25
2022-11-05T08:07:29.769Z,99950.50
2022-11-05T08:09:33.055Z,99954.81
2022-11-05T08:11:36.377Z,99946.84
2022-11-05T08:13:42.846Z,99957.47
2022-11-05T08:15:46.408Z,99949.28
2022-11-05T08:17:50.171Z,99952.75
2022-11-05T08:19:53.661Z,99951.78
2022-11-05T08:21:57.085Z,99944.53
2022-11-05T08:24:06.772Z,99948.88
2022-11-05T08:26:11.381Z,99947.91
2022-11-05T08:28:15.098Z,99944.16
2022-11-05T08:30:20.012Z,99943.03
2022-11-05T08:32:23.477Z,99962.22
2022-11-05T08:34:26.872Z,99955.66
2022-11-05T08:36:30.264Z,99958.78
2022-11-05T08:38:33.917Z,99961.31
2022-11-05T08:40:39.113Z,99951.41
2022-11-05T08:42:42.680Z,99952.94
2022-11-05T08:44:46.030Z,99956.31
2022-11-05T08:46:51.134Z,99949.06
2022-11-05T08:48:54.397Z,99951.63
2022-11-05T08:50:57.844Z,99956.81
2022-11-05T08:53:01.324Z,99963.69
2022-11-05T08:55:04.737Z,99953.88
2022-11-05T08:57:07.974Z,99957.22
2022-11-05T08:59:11.318Z,99974.88
2022-11-05T09:01:14.654Z,99981.88
2022-11-05T09:03:19.947Z,99973.75
2022-11-05T09:05:23.205Z,99974.59
2022-11-05T09:07:26.441Z,99980.75
2022-11-05T09:09:29.735Z,99983.16
2022-11-05T09:11:49.949Z,99989.19
2022-11-05T09:13:56.195Z,99988.91
2022-11-05T09:15:59.995Z,99986.97
2022-11-05T09:18:03.778Z,99998.44
2022-11-05T09:20:12.101Z,99993.84
2022-11-05T09:22:16.019Z,99992.03
2022-11-05T09:24:19.282Z,100000.84
2022-11-05T09:26:22.490Z,100007.97
2022-11-05T09:28:25.838Z,100002.78
2022-11-05T09:30:29.117Z,100012.56
2022-11-05T09:32:32.995Z,100015.22
2022-11-05T09:34:36.634Z,100010.19
2022-11-05T09:36:41.312Z,100005.97
2022-11-05T09:38:47.773Z,100008.75
2022-11-05T09:40:58.634Z,100004.53
2022-11-05T09:43:02.900Z,100009.84
2022-11-05T09:45:11.207Z,100001.16
2022-11-05T09:47:19.269Z,99987.88
2022-11-05T09:49:27.679Z,99996.72
2022-11-05T09:51:31.926Z,100002.03
2022-11-05T09:53:41.113Z,100006.47
2022-11-05T09:55:46.699Z,99998.50
2022-11-05T09:57:54.437Z,99997.66
2022-11-05T10:00:00.207Z,100001.16
2022-11-05T10:02:12.960Z,100001.16
2022-11-05T10:04:20.458Z,100008.44
2022-11-05T10:06:26.421Z,100015.69
2022-11-05T10:08:33.790Z,100020.56
2022-11-05T10:10:43.506Z,100025.66
2022-11-05T10:12:52.272Z,100035.94
2022-11-05T10:15:08.866Z,100039.94
2022-11-05T10:17:24.636Z,100048.16
2022-11-05T10:19:33.178Z,100043.94
2022-11-05T10:22:04.834Z,100044.78
2022-11-05T10:24:04.057Z,100035.00
2022-11-05T10:26:14.961Z,100043.56
2022-11-05T10:28:20.215Z,100043.03
2022-11-05T10:30:24.962Z,100038.47
2022-11-05T10:32:32.319Z,100034.72
2022-11-05T10:34:39.071Z,100029.22
2022-11-05T10:36:43.073Z,100029.03
2022-11-05T10:38:48.779Z,100019.16
2022-11-05T10:41:04.981Z,100021.50
2022-11-05T10:43:16.078Z,100038.88
2022-11-05T10:45:29.785Z,100042.22
2022-11-05T10:48:03.143Z,100030.34
2022-11-05T10:50:12.468Z,100029.94
2022-11-05T10:52:23.782Z,100027.31
2022-11-05T10:54:34.846Z,100025.47
2022-11-05T10:56:40.157Z,100031.31
2022-11-05T10:58:57.119Z,100027.50
2022-11-05T11:01:08.379Z,100022.69
2022-11-05T11:03:35.327Z,100012.72
2022-11-05T11:05:40.660Z,100009.19
2022-11-05T11:07:44.724Z,100012.81
2022-11-05T11:09:50.395Z,100024.53
2022-11-05T11:12:07.559Z,100030.69
2022-11-05T11:14:22.479Z,100032.41
2022-11-05T11:16:27.913Z,100028.75
2022-11-05T11:18:40.266Z,100033.72
2022-11-05T11:20:47.472Z,100058.19
2022-11-05T11:23:06.991Z,100049.25
2022-11-05T11:25:24.760Z,100050.94
2022-11-05T11:27:30.784Z,100050.81
2022-11-05T11:29:40.525Z,100055.97
2022-11-05T11:31:47.958Z,100057.69
2022-11-05T11:33:59.594Z,100059.59
2022-11-05T11:36:03.595Z,100063.25
2022-11-05T11:38:08.764Z,100061.44
2022-11-05T11:40:18.876Z,100064.41
2022-11-05T11:42:29.893Z,100061.97
2022-11-05T11:44:41.034Z,100063.84
2022-11-05T11:46:50.085Z,100059.94
2022-11-05T11:48:54.728Z,100059.53
2022-11-05T11:51:00.458Z,100055.78
2022-11-05T11:53:38.184Z,100055.91
2022-11-05T11:55:42.508Z,100050.16
2022-11-05T11:57:50.527Z,100055.88
2022-11-05T12:00:13.818Z,100054.44
2022-11-05T12:02:45.319Z,100061.00
2022-11-05T12:05:16.016Z,100046.16
2022-11-05T12:07:38.162Z,100053.38
2022-11-05T12:09:59.950Z,100051.00
2022-11-05T12:12:09.648Z,100048.47
2022-11-05T12:14:23.561Z,100052.09
2022-11-05T12:16:45.977Z,100057.41
2022-11-05T12:19:02.156Z,100055.97
2022-11-05T12:21:24.998Z,100063.50
2022-11-05T12:24:04.976Z,100064.63
2022-11-05T12:26:15.286Z,100061.84
2022-11-05T12:29:12.024Z,100071.59
2022-11-05T12:31:18.443Z,100071.59
2022-11-05T12:33:35.341Z,100085.00
2022-11-05T12:35:53.352Z,100081.53
2022-11-05T12:38:11.261Z,100083.44
2022-11-05T12:40:35.995Z,100091.41
2022-11-05T12:42:53.903Z,100086.25
2022-11-05T12:45:04.935Z,100083.59
2022-11-05T12:47:24.760Z,100093.38
2022-11-05T12:49:48.872Z,100093.59
2022-11-05T12:52:15.216Z,100090.00
2022-11-05T12:54:34.086Z,100089.13
2022-11-05T12:56:43.913Z,100091.91
2022-11-05T12:58:54.023Z,100090.34
2022-11-05T13:01:03.501Z,100096.63
2022-11-05T13:04:02.443Z,100092.28
2022-11-05T13:06:37.585Z,100092.28
2022-11-05T13:09:08.783Z,100094.09
2022-11-05T13:11:26.028Z,100109.19
2022-11-05T13:28:06.978Z,100104.97
2022-11-05T13:30:11.541Z,100094.94
2022-11-05T13:33:26.430Z,100089.25
2022-11-05T13:36:18.916Z,100094.19
2022-11-05T13:38:44.980Z,100090.59
2022-11-05T13:41:00.937Z,100091.41
2022-11-05T13:43:24.388Z,100087.94
2022-11-05T13:46:05.937Z,100085.53
2022-11-05T13:48:50.886Z,100078.75
2022-11-05T13:51:24.737Z,100091.31
2022-11-05T13:53:48.733Z,100084.31
2022-11-05T13:56:07.482Z,100087.97
2022-11-05T13:58:30.027Z,100088.78
2022-11-05T14:00:38.852Z,100085.16
2022-11-05T14:02:50.156Z,100089.38
2022-11-05T14:05:01.240Z,100085.63
2022-11-05T14:07:11.492Z,100084.69
2022-11-05T14:09:22.459Z,100086.97
2022-11-05T14:11:30.470Z,100087.78
2022-11-05T14:13:38.576Z,100089.50
2022-11-05T14:15:42.669Z,100083.91
2022-11-05T14:18:00.057Z,100082.00
2022-11-05T14:20:40.613Z,100079.44
2022-11-05T14:22:45.619Z,100074.97
2022-11-05T14:24:55.272Z,100084.75
2022-11-05T14:27:44.397Z,100089.50
2022-11-05T14:29:49.738Z,100087.09
2022-11-05T14:32:08.934Z,100085.53
2022-11-05T14:34:25.617Z,100085.75
2022-11-05T14:36:38.488Z,100084.91
2022-11-05T14:38:48.758Z,100080.44
2022-11-05T14:41:01.850Z,100091.91
2022-11-05T14:43:17.574Z,100089.13
2022-11-05T14:45:33.271Z,100088.06
2022-11-05T14:47:48.211Z,100094.19
2022-11-05T14:49:56.000Z,100093.13
2022-11-05T14:52:01.425Z,100091.19
2022-11-05T14:54:08.074Z,100090.06
2022-11-05T14:56:20.482Z,100091.06
2022-11-05T14:58:30.350Z,100096.38
2022-11-05T15:00:48.792Z,100098.28
2022-11-05T15:02:58.368Z,100087.94
2022-11-05T15:05:35.341Z,100090.84
2022-11-05T15:07:43.852Z,100085.03
2022-11-05T15:09:50.327Z,100087.81
2022-11-05T15:12:10.986Z,100089.75
2022-11-05T15:14:24.666Z,100099.66
2022-11-05T15:16:34.082Z,100096.28
2022-11-05T15:18:43.908Z,100101.59
2022-11-05T15:20:51.247Z,100105.34
2022-11-05T15:23:01.172Z,100100.16
2022-11-05T15:25:06.068Z,100101.97
2022-11-05T15:27:16.546Z,100098.59
2022-11-05T15:29:24.955Z,100095.25
2022-11-05T15:31:34.871Z,100089.19
2022-11-05T15:33:38.861Z,100087.63
2022-11-05T15:35:42.862Z,100086.19
2022-11-05T15:37:54.591Z,100089.97
2022-11-05T15:40:02.323Z,100086.72
2022-11-05T15:42:08.714Z,100085.97
2022-11-05T15:44:25.879Z,100085.53
2022-11-05T15:46:30.276Z,100088.41
2022-11-05T15:48:34.251Z,100083.50
2022-11-05T15:50:37.923Z,100090.63
2022-11-05T15:52:49.688Z,100094.50
2022-11-05T15:55:23.952Z,100094.72
2022-11-05T15:57:30.506Z,100089.78
2022-11-05T15:59:35.296Z,100093.53
2022-11-05T16:01:48.700Z,100092.94
2022-11-05T16:03:53.759Z,100088.84
2022-11-05T16:05:58.097Z,100097.88
2022-11-05T16:08:04.442Z,100096.34
2022-11-05T16:10:12.790Z,100093.06
2022-11-05T16:12:26.965Z,100097.66
2022-11-05T16:14:36.542Z,100102.50
2022-11-05T16:16:40.408Z,100099.09
2022-11-05T16:18:45.516Z,100109.13
2022-11-05T16:21:01.729Z,100103.22
2022-11-05T16:23:23.454Z,100105.25
2022-11-05T16:25:34.017Z,100112.63
2022-11-05T16:27:39.202Z,100106.81
2022-11-05T16:29:50.139Z,100118.50
2022-11-05T16:31:55.389Z,100106.47
2022-11-05T16:34:00.218Z,100114.66
2022-11-05T16:36:03.874Z,100113.22
2022-11-05T16:38:07.450Z,100122.34
2022-11-05T16:40:15.478Z,100120.91
2022-11-05T16:42:48.799Z,100130.88
2022-11-05T16:44:53.605Z,100129.44
2022-11-05T16:46:57.098Z,100123.53
2022-11-05T16:49:00.598Z,100130.00
2022-11-05T16:51:04.106Z,100133.97
2022-11-05T16:53:07.898Z,100129.03
2022-11-05T16:55:12.629Z,100127.56
2022-11-05T16:57:24.647Z,100132.34
2022-11-05T16:59:30.365Z,100140.53
2022-11-05T17:01:35.195Z,100138.94
2022-11-05T17:03:39.144Z,100141.72
2022-11-05T17:05:43.738Z,100140.25
2022-11-05T17:07:47.472Z,100136.88
2022-11-05T17:09:51.117Z,100130.97
2022-11-05T17:11:54.736Z,100136.34
2022-11-05T17:13:58.249Z,100139.34
2022-11-05T17:16:04.790Z,100154.97
2022-11-05T17:18:09.329Z,100156.38
2022-11-05T17:20:24.773Z,100153.22
2022-11-05T17:22:28.340Z,100156.94
2022-11-05T17:24:31.981Z,100145.50
2022-11-05T17:26:35.680Z,100142.88
2022-11-05T17:28:40.799Z,100143.81
2022-11-05T17:30:51.686Z,100149.34
2022-11-05T17:32:57.894Z,100153.06
2022-11-05T17:35:01.729Z,100162.06
2022-11-05T17:37:05.528Z,100164.19
2022-11-05T17:39:09.066Z,100161.88
2022-11-05T17:41:14.069Z,100158.50
2022-11-05T17:43:18.123Z,100153.19
2022-11-05T17:45:21.812Z,100146.22
2022-11-05T17:47:26.056Z,100145.38
2022-11-05T17:49:31.388Z,100148.88
2022-11-05T17:51:36.313Z,100140.31
2022-11-05T17:53:40.649Z,100138.63
2022-11-05T17:55:45.555Z,100134.16
2022-11-05T17:57:51.992Z,100140.19
2022-11-05T17:59:55.634Z,100134.91
2022-11-05T18:02:00.102Z,100142.00
2022-11-05T18:04:08.727Z,100136.78
2022-11-05T18:06:14.248Z,100139.44
2022-11-05T18:08:18.219Z,100136.78
2022-11-05T18:10:21.960Z,100131.44
2022-11-05T18:12:25.519Z,100132.47
2022-11-05T18:14:29.157Z,100120.91
2022-11-05T18:16:32.930Z,100118.19
2022-11-05T18:18:36.909Z,100112.91
2022-11-05T18:20:40.562Z,100114.69
2022-11-05T18:22:46.159Z,100120.84
2022-11-05T18:24:50.343Z,100106.84
2022-11-05T18:26:54.651Z,100111.31
2022-11-05T18:28:58.493Z,100106.13
2022-11-05T18:31:02.137Z,100102.84
2022-11-05T18:33:05.835Z,100106.34
2022-11-05T18:35:10.588Z,100099.28
2022-11-05T18:37:14.257Z,100096.50
2022-11-05T18:39:19.330Z,100090.25
2022-11-05T18:41:23.000Z,100079.56
2022-11-05T18:43:26.559Z,100084.84
2022-11-05T18:45:32.352Z,100082.09
2022-11-05T18:47:35.952Z,100079.34
2022-11-05T18:49:39.754Z,100071.28
2022-11-05T18:51:43.417Z,100077.31
2022-11-05T18:53:47.154Z,100070.22
2022-11-05T18:55:52.373Z,100069.38
2022-11-05T18:57:56.034Z,100073.81
2022-11-05T18:59:59.679Z,100066.72
2022-11-05T19:02:03.454Z,100057.72
2022-11-05T19:04:07.197Z,100050.50
2022-11-05T19:06:10.893Z,100046.91
2022-11-05T19:08:14.843Z,100047.16
2022-11-05T19:10:20.173Z,100050.75
2022-11-05T19:12:25.825Z,100043.25
2022-11-05T19:14:30.350Z,100049.31
2022-11-05T19:16:34.798Z,100050.84
2022-11-05T19:18:38.869Z,100039.97
2022-11-05T19:20:42.752Z,100034.41
2022-11-05T19:22:46.239Z,100032.72
2022-11-05T19:24:50.000Z,100026.25
2022-11-05T19:26:53.683Z,100024.13
2022-11-05T19:29:00.721Z,100026.53
2022-11-05T19:31:04.975Z,100043.25
2022-11-05T19:33:08.835Z,100030.34
2022-11-05T19:35:15.634Z,100030.56
2022-11-05T19:37:20.179Z,100027.94
2022-11-05T19:39:25.012Z,100033.84
2022-11-05T19:41:31.145Z,100029.06
2022-11-05T19:43:36.005Z,100022.16
2022-11-05T19:45:45.529Z,100014.38
2022-11-05T19:47:50.527Z,100010.94
2022-11-05T19:49:54.915Z,99998.91
2022-11-05T19:51:59.398Z,100001.94
2022-11-05T19:54:04.888Z,99992.69
2022-11-05T19:56:11.251Z,99999.56
2022-11-05T19:58:15.451Z,99999.31
2022-11-05T20:00:22.031Z,99995.72
2022-11-05T20:02:27.481Z,100001.66
2022-11-05T20:04:31.380Z,100000.78
2022-11-05T20:06:39.252Z,100000.69
2022-11-05T20:09:07.208Z,100006.00
2022-11-05T20:11:09.455Z,100007.53
2022-11-05T20:13:17.103Z,100010.09
2022-11-05T20:15:23.413Z,100010.19
2022-11-05T20:17:28.403Z,100004.78
2022-11-05T20:19:32.168Z,100007.44
2022-11-05T20:21:36.224Z,100005.75
2022-11-05T20:23:39.873Z,99999.59
2022-11-05T20:25:44.021Z,100002.16
2022-11-05T20:27:47.632Z,99997.69
2022-11-05T20:29:51.033Z,99994.91
2022-11-05T20:31:54.964Z,99986.25
2022-11-05T20:34:00.328Z,99986.97
2022-11-05T20:36:06.268Z,99986.72
2022-11-05T20:38:10.275Z,99978.56
2022-11-05T20:40:15.387Z,99981.81
2022-11-05T20:42:18.862Z,99986.66
2022-11-05T20:44:22.553Z,99987.09
2022-11-05T20:46:26.796Z,99992.06
2022-11-05T20:48:32.943Z,99992.44
2022-11-05T20:50:41.774Z,99990.41
2022-11-05T20:52:45.659Z,99984.78
2022-11-05T20:54:49.845Z,99981.88
2022-11-05T20:56:53.657Z,99974.66
2022-11-05T20:58:58.962Z,99973.66
2022-11-05T21:01:02.600Z,99964.88
2022-11-05T21:03:06.612Z,99963.06
2022-11-05T21:05:10.737Z,99952.47
2022-11-05T21:07:15.662Z,99952.47
2022-11-05T21:09:19.241Z,99958.63
2022-11-05T21:11:23.013Z,99959.47
2022-11-05T21:13:26.685Z,99947.19
2022-11-05T21:15:30.342Z,99950.81
2022-11-05T21:17:34.202Z,99946.47
2022-11-05T21:19:38.000Z,99934.19
2022-11-05T21:21:41.581Z,99935.13
2022-11-05T21:23:48.217Z,99922.88
2022-11-05T21:25:52.345Z,99935.13
2022-11-05T21:27:58.153Z,99927.19
2022-11-05T21:30:02.381Z,99921.19
2022-11-05T21:32:06.299Z,99904.41
2022-11-05T21:34:10.608Z,99904.41
2022-11-05T21:36:14.952Z,99913.34
2022-11-05T21:38:20.186Z,99905.41
2022-11-05T21:40:25.744Z,99919.47
2022-11-05T21:42:30.680Z,99916.84
2022-11-05T21:44:34.293Z,99907.19
2022-11-05T21:46:42.513Z,99894.16
2022-11-05T21:48:46.552Z,99893.69
2022-11-05T21:51:10.860Z,99886.81
2022-11-05T21:53:33.161Z,99886.00
2022-11-05T21:55:59.985Z,99890.31
2022-11-05T21:58:25.683Z,99891.03
2022-11-05T22:00:29.075Z,99879.34
2022-11-05T22:02:33.166Z,99873.94
2022-11-05T22:04:38.672Z,99866.75
2022-11-05T22:06:42.316Z,99868.44
2022-11-05T22:08:46.041Z,99859.50
2022-11-05T22:10:51.279Z,99854.94
2022-11-05T22:12:54.721Z,99850.47
2022-11-05T22:14:58.547Z,99853.97
2022-11-05T22:17:02.552Z,99850.34
2022-11-05T22:19:06.138Z,99845.03
2022-11-05T22:21:09.838Z,99832.66
2022-11-05T22:23:13.381Z,99829.16
2022-11-05T22:25:17.388Z,99829.16
2022-11-05T22:27:23.226Z,99838.78
2022-11-05T22:29:27.210Z,99829.03
2022-11-05T22:31:36.016Z,99825.53
2022-11-05T22:33:40.422Z,99826.38
2022-11-05T22:35:44.251Z,99821.94
2022-11-05T22:37:48.180Z,99819.16
2022-11-05T22:39:52.589Z,99824.31
2022-11-05T22:41:56.988Z,99826.03
2022-11-05T22:44:03.448Z,99817.94
2022-11-05T22:46:08.480Z,99819.63
2022-11-05T22:48:13.633Z,99805.53
2022-11-05T22:50:17.876Z,99814.06
2022-11-05T22:52:21.910Z,99796.34
2022-11-05T22:54:25.975Z,99789.41
2022-11-05T22:56:31.716Z,99796.34
2022-11-05T22:58:35.589Z,99789.13
2022-11-05T23:00:40.590Z,99775.16
2022-11-05T23:02:44.762Z,99768.91
2022-11-05T23:04:49.647Z,99766.38
2022-11-05T23:07:10.558Z,99770.84
2022-11-05T23:09:34.071Z,99768.28
2022-11-05T23:11:40.661Z,99760.59
2022-11-05T23:13:44.528Z,99762.44
2022-11-05T23:16:06.767Z,99755.31
2022-11-05T23:18:28.333Z,99751.81
2022-11-05T23:20:49.177Z,99744.84
2022-11-05T23:23:10.254Z,99741.72
2022-11-05T23:25:19.474Z,99730.69
2022-11-05T23:27:23.153Z,99753.75
2022-11-05T23:29:28.649Z,99746.19
2022-11-05T23:31:50.841Z,99736.94
2022-11-05T23:33:54.617Z,99738.13
2022-11-05T23:36:15.516Z,99732.28
2022-11-05T23:38:38.123Z,99731.66
2022-11-05T23:40:55.645Z,99727.59
2022-11-05T23:43:16.651Z,99727.84
2022-11-05T23:45:37.465Z,99717.38
2022-11-05T23:48:00.000Z,99723.03
2022-11-05T23:50:03.635Z,99705.47
2022-11-05T23:52:07.704Z,99704.50
2022-11-05T23:54:11.726Z,99694.88
2022-11-05T23:56:16.550Z,99703.78
2022-11-05T23:58:20.693Z,99690.81
